Latest Weather Observations for Brisbane Airport

IDQ60901

Issued at 10:01 am EST Tuesday 18 June 2019 (issued every 10 minutes, with the page automatically refreshed every 10 minutes)

About weather observations | Map of Brisbane area stations | Latest observations for Brisbane area | Other Formats
Station Details ID: 040842 Name: BRISBANE AERO Lat: -27.39 Lon: 153.13 Height: 4.51 m
Data from the previous 72 hours. | See also: Recent months at Brisbane Airport
Date/Time
EST
Temp
°C
App
Temp
°C
Dew
Point
°C
Rel
Hum
%
Delta-T
°C
Wind Press
QNH
hPa
Press
MSL
hPa
Rain since
9am
mm
Dir  Spd
km/h
Gust
km/h
Spd
kts
Gust
kts
18/09:30am 16.5 11.6 4.3 44 5.7 SW 19 26 10 14 1018.6 1018.5 0.0
18/09:00am 15.4 11.5 5.5 51 4.7 SW 15 19 8 10 1018.6 1018.5 0.0
18/08:30am 13.4 10.4 6.0 61 3.5 SSW 11 13 6 7 1018.5 1018.4 0.0
18/08:00am 11.7 9.2 6.4 70 2.5 SW 9 13 5 7 1018.3 1018.2 0.0
18/07:30am 10.3 7.6 5.5 72 2.2 SW 9 13 5 7 1018.2 1018.1 0.0
18/07:00am 9.2 5.6 4.9 74 1.9 SW 13 15 7 8 1018.0 1017.9 0.0
18/06:30am 8.3 4.3 4.9 79 1.5 SW 15 19 8 10 1017.7 1017.7 0.0
18/06:00am 10.1 6.1 4.7 69 2.4 SSW 15 19 8 10 1017.2 1017.2 0.0
18/05:30am 8.1 4.4 4.7 79 1.5 SSW 13 17 7 9 1016.9 1016.9 0.0
18/05:00am 8.9 5.7 4.9 76 1.8 SW 11 15 6 8 1016.6 1016.6 0.0
18/04:30am 8.2 5.7 5.0 80 1.4 SW 7 11 4 6 1016.4 1016.4 0.0
18/04:00am 8.0 6.5 5.1 82 1.3 SW 2 6 1 3 1016.4 1016.4 0.0
18/03:30am 8.4 5.2 5.3 81 1.4 SW 11 11 6 6 1016.4 1016.4 0.0
18/03:00am 8.8 5.5 4.7 75 1.8 SW 11 13 6 7 1016.4 1016.4 0.0
18/02:30am 9.3 6.0 4.6 72 2.1 SSW 11 13 6 7 1016.6 1016.6 0.0
18/02:00am 10.0 7.5 4.9 70 2.3 WSW 7 9 4 5 1016.8 1016.8 0.0
18/01:30am 10.2 8.7 5.1 70 2.3 NNW 2 7 1 4 1017.0 1017.0 0.0
18/01:00am 10.9 7.9 3.9 62 3.1 NW 9 13 5 7 1017.1 1017.1 0.0
18/12:30am 8.4 5.4 4.3 75 1.8 NW 9 11 5 6 1017.3 1017.3 0.0
18/12:00am 10.9 7.6 4.7 65 2.8 SSW 11 15 6 8 1017.3 1017.3 0.0
 
Date/Time
EST
Temp
°C
App
Temp
°C
Dew
Point
°C
Rel
Hum
%
Delta-T
°C
Wind Press
QNH
hPa
Press
MSL
hPa
Rain since
9am
mm
Dir  Spd
km/h
Gust
km/h
Spd
kts
Gust
kts
17/11:30pm 11.7 8.6 3.8 58 3.5 SW 9 11 5 6 1017.3 1017.3 0.0
17/11:00pm 11.9 10.3 4.4 60 3.4 SW 2 11 1 6 1017.4 1017.4 0.0
17/10:30pm 11.8 8.9 4.5 61 3.3 WNW 9 13 5 7 1017.4 1017.4 0.0
17/10:00pm 12.7 9.6 5.6 62 3.3 W 11 15 6 8 1017.5 1017.5 0.0
17/09:30pm 13.9 9.3 3.7 50 4.6 WSW 17 22 9 12 1017.4 1017.4 0.0
17/09:00pm 14.5 10.7 3.7 48 4.9 WSW 13 19 7 10 1017.5 1017.5 0.0
17/08:30pm 12.7 10.2 4.6 58 3.7 SSW 7 11 4 6 1017.5 1017.5 0.0
17/08:00pm 14.6 10.9 4.7 51 4.6 W 13 15 7 8 1017.4 1017.4 0.0
17/07:30pm 15.1 12.2 4.6 49 4.9 WSW 9 13 5 7 1017.2 1017.2 0.0
17/07:00pm 15.4 13.1 5.8 52 4.6 SSE 7 9 4 5 1016.9 1016.9 0.0
17/06:30pm 16.8 13.3 3.6 41 6.1 WNW 11 15 6 8 1016.6 1016.6 0.0
17/06:00pm 16.8 13.0 3.9 42 6.0 WNW 13 19 7 10 1016.1 1016.1 0.0
17/05:30pm 17.2 13.0 3.9 41 6.2 W 15 19 8 10 1015.6 1015.6 0.0
17/05:00pm 17.9 14.2 4.4 41 6.4 W 13 17 7 9 1015.4 1015.4 0.0
17/04:30pm 19.7 15.7 2.7 32 7.9 W 13 19 7 10 1015.2 1015.2 0.0
17/04:00pm 20.6 16.1 2.3 29 8.5 W 15 19 8 10 1015.2 1015.2 0.0
17/03:30pm 21.1 16.5 1.5 27 9.0 W 15 26 8 14 1014.9 1014.9 0.0
17/03:00pm 21.2 15.9 1.7 27 9.0 W 19 28 10 15 1014.7 1014.7 0.0
17/02:30pm 21.7 17.3 2.6 28 9.0 WNW 15 24 8 13 1014.7 1014.7 0.0
17/02:00pm 21.4 15.9 1.7 27 9.1 W 20 28 11 15 1014.8 1014.8 0.0
17/01:30pm 21.1 15.6 1.8 28 8.9 W 20 32 11 17 1014.9 1014.9 0.0
17/01:00pm 21.2 15.3 2.0 28 8.9 WSW 22 33 12 18 1015.2 1015.2 0.0
17/12:30pm 20.7 13.4 2.5 30 8.5 WSW 30 37 16 20 1015.4 1015.4 0.0
17/12:00pm 21.0 15.8 3.3 31 8.4 W 20 30 11 16 1015.8 1015.8 0.0
17/11:30am 20.4 16.1 5.4 37 7.4 SW 17 24 9 13 1016.3 1016.3 0.0
17/11:00am 19.7 15.7 4.8 37 7.2 WSW 15 19 8 10 1016.8 1016.8 0.0
17/10:30am 19.5 15.1 4.8 38 7.1 WSW 17 26 9 14 1017.2 1017.2 0.0
17/10:00am 18.7 12.8 3.9 37 7.0 WSW 24 30 13 16 1017.2 1017.2 0.0
17/09:30am 18.0 12.8 5.7 44 6.0 WSW 22 30 12 16 1017.3 1017.3 0.0
17/09:00am 17.2 13.2 6.7 50 5.2 WSW 17 24 9 13 1017.5 1017.5 6.2
17/08:30am 16.2 11.9 6.8 53 4.6 W 19 26 10 14 1017.6 1017.6 6.2
17/08:00am 14.6 10.3 9.5 71 2.6 WSW 22 28 12 15 1017.4 1017.4 6.2
17/07:30am 14.5 11.0 10.9 79 1.9 WSW 20 28 11 15 1017.2 1017.2 6.2
17/07:00am 13.9 12.7 11.5 85 1.3 WNW 9 13 5 7 1017.0 1017.0 6.2
17/06:30am 13.9 14.1 11.7 86 1.2 WSW 2 6 1 3 1016.7 1016.7 6.2
17/06:00am 14.4 13.6 14.0 97 0.2 SW 11 13 6 7 1016.2 1016.2 6.0
17/05:30am 15.0 13.5 14.3 96 0.4 SW 15 20 8 11 1015.8 1015.8 6.0
17/05:00am 15.5 14.9 14.6 94 0.5 SSW 11 15 6 8 1015.6 1015.6 6.0
17/04:30am 15.9 15.9 15.2 96 0.4 SW 9 9 5 5 1015.3 1015.3 6.0
17/04:00am 16.0 16.5 15.5 97 0.3 SSW 7 9 4 5 1015.1 1015.1 6.0
17/03:30am 16.2 18.2 15.9 98 0.2 CALM 0 0 0 0 1015.2 1015.2 6.0
17/03:00am 16.3 16.2 16.0 98 0.2 SW 11 15 6 8 1015.3 1015.3 6.0
17/02:30am 16.3 16.6 16.1 99 0.1 SW 9 11 5 6 1015.3 1015.3 6.0
17/02:00am 16.6 18.0 16.4 99 0.1 W 4 7 2 4 1015.5 1015.5 6.0
17/01:30am 16.7 17.1 16.4 98 0.2 WSW 9 11 5 6 1016.2 1016.2 5.8
17/01:00am 16.7 17.1 16.4 98 0.2 WSW 9 11 5 6 1016.4 1016.4 4.6
17/12:30am 16.1 16.7 15.8 98 0.2 NW 7 9 4 5 1016.3 1016.3 4.4
17/12:00am 16.3 16.4 15.6 96 0.4 W 9 17 5 9 1016.6 1016.6 4.4
 
Date/Time
EST
Temp
°C
App
Temp
°C
Dew
Point
°C
Rel
Hum
%
Delta-T
°C
Wind Press
QNH
hPa
Press
MSL
hPa
Rain since
9am
mm
Dir  Spd
km/h
Gust
km/h
Spd
kts
Gust
kts
16/11:30pm 16.6 16.9 16.1 97 0.3 NW 9 17 5 9 1016.9 1016.9 4.4
16/11:23pm 16.9 17.3 16.2 96 0.4 WNW 9 17 5 9 1017.0 1017.0 4.4
16/11:00pm 16.8 17.2 16.3 97 0.3 NW 9 11 5 6 1017.0 1017.0 4.4
16/10:30pm 17.0 16.6 16.3 96 0.4 NW 13 15 7 8 1017.4 1017.4 4.4
16/10:11pm 17.0 17.0 16.3 96 0.4 NNW 11 13 6 7 1017.5 1017.5 4.4
16/10:00pm 16.9 17.0 16.4 97 0.3 NNW 11 13 6 7 1017.6 1017.6 4.4
16/09:30pm 16.9 17.3 16.4 97 0.3 NNW 9 15 5 8 1017.4 1017.4 4.4
16/09:00pm 16.7 17.1 16.2 97 0.3 N 9 13 5 7 1017.2 1017.2 4.4
16/08:30pm 16.9 16.6 16.4 97 0.3 N 13 19 7 10 1017.2 1017.2 4.4
16/08:00pm 17.1 16.7 16.3 95 0.5 N 13 20 7 11 1018.5 1018.4 3.6
16/07:30pm 16.4 18.3 15.7 96 0.4 CALM 0 0 0 0 1017.5 1017.5 3.6
16/07:00pm 16.4 16.5 15.5 94 0.5 NE 9 11 5 6 1017.4 1017.4 3.6
16/06:30pm 16.5 16.6 15.6 94 0.5 ENE 9 13 5 7 1017.1 1017.1 3.4
16/06:00pm 16.2 15.8 15.3 94 0.5 NNE 11 15 6 8 1017.4 1017.4 3.4
16/05:30pm 16.3 15.1 15.1 93 0.7 ENE 15 20 8 11 1016.8 1016.8 3.4
16/05:00pm 16.1 16.1 15.1 94 0.6 SE 9 13 5 7 1016.1 1016.1 3.4
16/04:44pm 16.1 15.7 15.1 94 0.6 S 11 17 6 9 1016.3 1016.3 2.8
16/04:30pm 15.7 14.6 14.3 91 0.8 SSW 13 20 7 11 1016.7 1016.7 2.4
16/04:27pm 15.6 13.8 14.4 93 0.7 SSW 17 28 9 15 1016.7 1016.7 2.0
16/04:22pm 16.3 13.9 13.8 85 1.4 SSW 19 28 10 15 1016.8 1016.8 0.8
16/04:18pm 16.2 13.5 13.5 84 1.5 SSW 20 35 11 19 1016.7 1016.7 0.4
16/04:08pm 16.8 14.3 15.2 90 0.9 WSW 22 41 12 22 1016.7 1016.7 0.0
16/04:00pm 20.2 20.5 15.1 72 3.0 NE 7 13 4 7 1017.0 1017.0 0.0
16/03:53pm 20.7 20.8 16.4 76 2.6 NE 11 13 6 7 1016.1 1016.1 0.0
16/03:40pm 20.8 21.5 16.1 74 2.8 ENE 7 11 4 6 1016.1 1016.1 0.0
16/03:30pm 20.8 21.1 16.1 74 2.8 ENE 9 13 5 7 1016.1 1016.1 0.0
16/03:00pm 21.4 21.2 15.7 70 3.4 ENE 11 15 6 8 1016.0 1016.0 0.0
16/02:30pm 22.2 22.1 15.9 67 3.8 ENE 11 13 6 7 1015.9 1015.9 0.0
16/02:00pm 21.5 22.1 16.7 74 2.9 ENE 9 11 5 6 1016.4 1016.4 0.0
16/01:30pm 21.0 21.3 16.0 73 3.0 NE 9 13 5 7 1016.6 1016.6 0.0
16/01:00pm 21.0 20.9 16.0 73 3.0 ENE 11 15 6 8 1016.9 1016.9 0.0
16/12:30pm 21.5 20.8 16.5 73 3.0 NE 15 17 8 9 1017.7 1017.7 0.0
16/12:00pm 21.9 21.5 16.1 69 3.5 ENE 13 17 7 9 1018.2 1018.1 0.0
16/11:30am 21.9 22.5 15.7 68 3.7 SSE 7 13 4 7 1018.6 1018.5 0.0
16/11:00am 21.5 22.2 16.0 71 3.3 S 7 11 4 6 1019.4 1019.3 0.0
16/10:30am 21.2 21.6 16.2 73 3.0 S 9 13 5 7 1019.5 1019.4 0.0
16/10:00am 19.9 19.6 16.4 80 2.1 SW 13 17 7 9 1019.9 1019.8 0.0
16/09:30am 18.5 19.1 16.7 89 1.1 SSW 9 13 5 7 1019.9 1019.8 0.0
16/09:00am 18.1 18.8 17.1 94 0.6 SSW 9 11 5 6 1020.0 1019.9 0.0
16/08:51am 18.0 18.8 17.2 95 0.5 SSW 9 11 5 6 1020.0 1019.9 0.0
16/08:44am 17.8 18.9 17.1 96 0.4 SSW 7 11 4 6 1019.8 1019.7 0.0
16/08:30am 16.9 17.8 16.7 99 0.1 SSW 7 11 4 6 1019.7 1019.6 0.0
16/08:12am 16.6 18.5 16.6 100 0.0 S 2 7 1 4 1019.6 1019.5 0.0
16/08:00am 16.4 16.8 16.2 99 0.1 SSW 9 13 5 7 1019.5 1019.4 0.0
16/07:30am 15.0 15.3 15.0 100 0.0 SSW 7 9 4 5 1019.5 1019.4 0.0
16/07:00am 14.6 14.4 14.6 100 0.0 SW 9 13 5 7 1019.2 1019.1 0.0
16/06:44am 14.5 14.2 14.5 100 0.0 WSW 9 11 5 6 1019.0 1018.9 0.0
16/06:30am 14.4 14.0 14.2 99 0.1 W 9 13 5 7 1018.8 1018.7 0.0
16/06:13am 14.0 13.1 13.8 99 0.1 WSW 11 11 6 6 1018.5 1018.4 0.0
16/06:00am 13.7 13.0 13.3 97 0.2 SW 9 11 5 6 1018.2 1018.1 0.0
16/05:43am 14.1 15.3 13.7 97 0.2 CALM 0 0 0 0 1018.0 1017.9 0.0
16/05:30am 13.8 14.9 13.6 99 0.1 CALM 0 0 0 0 1017.5 1017.5 0.0
16/05:00am 13.5 13.4 13.3 99 0.1 WSW 6 7 3 4 1017.6 1017.6 0.0
16/04:30am 13.5 14.5 13.1 97 0.2 CALM 0 0 0 0 1017.6 1017.6 0.0
16/04:00am 14.3 15.5 13.9 97 0.2 CALM 0 0 0 0 1017.5 1017.5 0.0
16/03:30am 14.0 15.1 13.6 97 0.2 CALM 0 0 0 0 1017.6 1017.6 0.0
16/03:00am 14.0 13.9 13.8 99 0.1 SW 7 11 4 6 1017.8 1017.8 0.0
16/02:30am 13.6 13.3 13.2 97 0.2 W 7 11 4 6 1017.8 1017.8 0.0
16/02:00am 14.8 16.2 14.3 97 0.3 CALM 0 0 0 0 1017.7 1017.7 0.0
16/01:30am 15.2 16.9 15.2 100 0.0 CALM 0 7 0 4 1017.7 1017.7 0.0
16/01:00am 14.8 16.4 14.8 100 0.0 CALM 0 0 0 0 1018.0 1017.9 0.0
16/12:30am 16.4 17.3 16.2 99 0.1 N 6 7 3 4 1018.0 1017.9 0.0
16/12:00am 16.7 17.5 16.4 98 0.2 NNE 7 11 4 6 1018.1 1018.0 0.0
 
Date/Time
EST
Temp
°C
App
Temp
°C
Dew
Point
°C
Rel
Hum
%
Delta-T
°C
Wind Press
QNH
hPa
Press
MSL
hPa
Rain since
9am
mm
Dir  Spd
km/h
Gust
km/h
Spd
kts
Gust
kts
15/11:30pm 17.1 17.7 16.8 98 0.2 NE 9 9 5 5 1018.2 1018.1 0.0
15/11:00pm 17.2 18.7 16.7 97 0.3 SE 4 7 2 4 1018.4 1018.3 0.0
15/10:30pm 16.9 17.9 16.4 97 0.3 SE 6 7 3 4 1018.5 1018.4 0.0
15/10:00pm 17.1 19.4 16.8 98 0.2 CALM 0 0 0 0 1018.5 1018.4 0.0
15/09:30pm 17.5 19.9 17.0 97 0.3 CALM 0 0 0 0 1018.7 1018.6 0.0
15/09:00pm 16.8 17.8 16.3 97 0.3 ENE 6 9 3 5 1018.6 1018.5 0.0
15/08:30pm 17.7 20.1 16.9 95 0.5 CALM 0 0 0 0 1018.5 1018.4 0.0
15/08:00pm 17.2 17.6 16.4 95 0.5 NNE 9 11 5 6 1018.4 1018.3 0.0
15/07:30pm 17.2 17.6 16.4 95 0.5 N 9 13 5 7 1017.8 1017.8 0.0
15/07:00pm 17.7 19.9 16.5 93 0.7 CALM 0 0 0 0 1017.8 1017.8 0.0
15/06:30pm 18.2 19.2 16.9 92 0.8 NE 7 9 4 5 1017.6 1017.6 0.0
15/06:00pm 18.2 19.7 16.7 91 0.9 NE 4 7 2 4 1017.4 1017.4 0.0
15/05:30pm 18.2 20.1 16.7 91 0.9 NE 2 9 1 5 1016.9 1016.9 0.0
15/05:00pm 18.7 19.6 16.7 88 1.2 NNE 7 9 4 5 1016.8 1016.8 0.0
15/04:30pm 20.3 20.6 15.9 76 2.6 NNE 9 13 5 7 1016.7 1016.7 0.0
15/04:00pm 21.5 20.9 14.5 64 4.1 NE 11 13 6 7 1016.5 1016.5 0.0
15/03:30pm 22.7 21.6 14.4 59 4.9 ENE 13 19 7 10 1016.3 1016.3 0.0
15/03:00pm 23.0 21.6 13.5 55 5.5 ENE 13 17 7 9 1016.3 1016.3 0.0
15/02:30pm 23.3 21.4 14.3 57 5.3 NE 17 19 9 10 1016.5 1016.5 0.0
15/02:00pm 22.9 21.9 16.7 68 3.8 NE 17 19 9 10 1016.6 1016.6 0.0
15/01:30pm 23.0 21.9 16.4 66 4.0 NE 17 19 9 10 1016.7 1016.7 0.0
15/01:00pm 23.3 22.7 16.6 66 4.1 ENE 15 19 8 10 1017.1 1017.1 0.0
15/12:30pm 23.3 22.6 16.4 65 4.2 NE 15 17 8 9 1017.5 1017.5 0.0
15/12:00pm 23.3 23.4 16.4 65 4.2 NE 11 15 6 8 1018.0 1017.9 0.0
15/11:30am 22.4 22.7 16.1 67 3.8 NE 9 15 5 8 1018.6 1018.5 0.0
15/11:00am 22.5 23.6 16.6 69 3.6 SE 6 9 3 5 1019.2 1019.1 0.0
15/10:30am 21.7 22.3 16.9 74 2.9 E 9 13 5 7 1019.4 1019.3 0.0

Latest Capital City Observations: Canberra | Sydney | Melbourne | Brisbane | Adelaide | Perth | Hobart | Darwin

Other formats

Comma delimited format used in spreadsheet applications
http://www.bom.gov.au/fwo/IDQ60901/IDQ60901.94578.axf

JavaScript Object Notation format (JSON) in row-major order
http://www.bom.gov.au/fwo/IDQ60901/IDQ60901.94578.json

Data quality

Most of these data are generated automatically and are frequently updated. Quality checks on data are not normally performed. It is possible for incorrect values to appear. Refer to information at About Latest Weather Observations and please check the disclaimer before using these data.